sensor_id;sensor_type;location;lat;lon;timestamp;P1;durP1;ratioP1;P2;durP2;ratioP2
20527;SDS011;23612;50.894;10.700;2023-06-26T00:01:29;8.90;;;7.63;;
20527;SDS011;23612;50.894;10.700;2023-06-26T00:03:56;10.95;;;7.75;;
20527;SDS011;23612;50.894;10.700;2023-06-26T00:06:22;9.43;;;8.43;;
20527;SDS011;23612;50.894;10.700;2023-06-26T00:08:51;8.40;;;7.60;;
20527;SDS011;23612;50.894;10.700;2023-06-26T00:11:18;12.18;;;8.73;;
20527;SDS011;23612;50.894;10.700;2023-06-26T00:13:44;12.38;;;8.30;;
20527;SDS011;23612;50.894;10.700;2023-06-26T00:16:09;9.30;;;8.27;;
20527;SDS011;23612;50.894;10.700;2023-06-26T00:18:35;9.27;;;8.38;;
20527;SDS011;23612;50.894;10.700;2023-06-26T00:21:00;11.55;;;8.40;;
20527;SDS011;23612;50.894;10.700;2023-06-26T00:23:25;10.32;;;8.40;;
20527;SDS011;23612;50.894;10.700;2023-06-26T00:25:52;11.40;;;8.57;;
20527;SDS011;23612;50.894;10.700;2023-06-26T00:28:18;9.30;;;8.40;;
20527;SDS011;23612;50.894;10.700;2023-06-26T00:30:43;9.77;;;8.77;;
20527;SDS011;23612;50.894;10.700;2023-06-26T00:33:09;9.35;;;8.02;;
20527;SDS011;23612;50.894;10.700;2023-06-26T00:35:34;11.63;;;8.57;;
20527;SDS011;23612;50.894;10.700;2023-06-26T00:38:00;12.82;;;8.45;;
20527;SDS011;23612;50.894;10.700;2023-06-26T00:40:26;8.60;;;7.72;;
20527;SDS011;23612;50.894;10.700;2023-06-26T00:42:52;10.70;;;8.80;;
20527;SDS011;23612;50.894;10.700;2023-06-26T00:45:18;11.90;;;8.68;;
20527;SDS011;23612;50.894;10.700;2023-06-26T00:47:44;9.80;;;8.40;;
20527;SDS011;23612;50.894;10.700;2023-06-26T00:50:09;9.63;;;8.60;;
20527;SDS011;23612;50.894;10.700;2023-06-26T00:52:36;9.15;;;8.25;;
20527;SDS011;23612;50.894;10.700;2023-06-26T00:55:02;9.88;;;8.10;;
20527;SDS011;23612;50.894;10.700;2023-06-26T00:57:29;14.23;;;8.70;;
20527;SDS011;23612;50.894;10.700;2023-06-26T00:59:55;12.00;;;8.75;;
20527;SDS011;23612;50.894;10.700;2023-06-26T01:02:21;10.75;;;8.85;;
20527;SDS011;23612;50.894;10.700;2023-06-26T01:04:49;10.35;;;8.60;;
20527;SDS011;23612;50.894;10.700;2023-06-26T01:07:17;13.73;;;8.70;;
20527;SDS011;23612;50.894;10.700;2023-06-26T01:09:45;14.82;;;8.82;;
20527;SDS011;23612;50.894;10.700;2023-06-26T01:12:12;12.00;;;8.45;;
20527;SDS011;23612;50.894;10.700;2023-06-26T01:14:37;8.77;;;7.88;;
20527;SDS011;23612;50.894;10.700;2023-06-26T01:17:03;13.43;;;8.63;;
20527;SDS011;23612;50.894;10.700;2023-06-26T01:19:29;13.90;;;8.45;;
20527;SDS011;23612;50.894;10.700;2023-06-26T01:22:00;10.15;;;8.05;;
20527;SDS011;23612;50.894;10.700;2023-06-26T01:24:39;13.52;;;8.60;;
20527;SDS011;23612;50.894;10.700;2023-06-26T01:27:09;12.65;;;8.02;;
20527;SDS011;23612;50.894;10.700;2023-06-26T01:29:36;11.20;;;8.50;;
20527;SDS011;23612;50.894;10.700;2023-06-26T01:32:02;10.45;;;8.38;;
20527;SDS011;23612;50.894;10.700;2023-06-26T01:34:28;9.27;;;8.38;;
20527;SDS011;23612;50.894;10.700;2023-06-26T01:36:54;12.38;;;8.40;;
20527;SDS011;23612;50.894;10.700;2023-06-26T01:39:20;9.05;;;8.07;;
20527;SDS011;23612;50.894;10.700;2023-06-26T01:41:45;11.35;;;8.15;;
20527;SDS011;23612;50.894;10.700;2023-06-26T01:44:14;12.43;;;9.40;;
20527;SDS011;23612;50.894;10.700;2023-06-26T01:46:57;10.70;;;8.13;;
20527;SDS011;23612;50.894;10.700;2023-06-26T01:49:30;9.82;;;8.52;;
20527;SDS011;23612;50.894;10.700;2023-06-26T01:52:25;9.85;;;8.80;;
20527;SDS011;23612;50.894;10.700;2023-06-26T01:55:05;18.38;;;9.07;;
20527;SDS011;23612;50.894;10.700;2023-06-26T01:57:51;10.75;;;8.50;;
20527;SDS011;23612;50.894;10.700;2023-06-26T02:00:19;9.60;;;8.20;;
20527;SDS011;23612;50.894;10.700;2023-06-26T02:02:46;12.07;;;8.80;;
20527;SDS011;23612;50.894;10.700;2023-06-26T02:05:12;13.85;;;8.20;;
20527;SDS011;23612;50.894;10.700;2023-06-26T02:07:38;12.05;;;8.30;;
20527;SDS011;23612;50.894;10.700;2023-06-26T02:10:04;10.20;;;8.05;;
20527;SDS011;23612;50.894;10.700;2023-06-26T02:12:30;10.95;;;8.38;;
20527;SDS011;23612;50.894;10.700;2023-06-26T02:14:55;11.45;;;8.63;;
20527;SDS011;23612;50.894;10.700;2023-06-26T02:17:21;12.60;;;8.70;;
20527;SDS011;23612;50.894;10.700;2023-06-26T02:19:46;12.43;;;8.65;;
20527;SDS011;23612;50.894;10.700;2023-06-26T02:22:15;11.02;;;8.38;;
20527;SDS011;23612;50.894;10.700;2023-06-26T02:24:41;11.43;;;8.48;;
20527;SDS011;23612;50.894;10.700;2023-06-26T02:27:08;9.13;;;8.20;;
20527;SDS011;23612;50.894;10.700;2023-06-26T02:29:33;11.85;;;9.95;;
20527;SDS011;23612;50.894;10.700;2023-06-26T02:31:59;12.73;;;8.38;;
20527;SDS011;23612;50.894;10.700;2023-06-26T02:34:25;15.88;;;8.95;;
20527;SDS011;23612;50.894;10.700;2023-06-26T02:36:50;15.13;;;9.25;;
20527;SDS011;23612;50.894;10.700;2023-06-26T02:39:19;11.13;;;9.13;;
20527;SDS011;23612;50.894;10.700;2023-06-26T02:41:44;13.43;;;8.38;;
20527;SDS011;23612;50.894;10.700;2023-06-26T02:44:10;11.07;;;8.55;;
20527;SDS011;23612;50.894;10.700;2023-06-26T02:46:37;10.52;;;8.52;;
20527;SDS011;23612;50.894;10.700;2023-06-26T02:49:02;16.92;;;8.85;;
20527;SDS011;23612;50.894;10.700;2023-06-26T02:51:28;9.52;;;8.23;;
20527;SDS011;23612;50.894;10.700;2023-06-26T02:53:53;14.45;;;8.63;;
20527;SDS011;23612;50.894;10.700;2023-06-26T02:56:19;9.52;;;7.90;;
20527;SDS011;23612;50.894;10.700;2023-06-26T02:58:44;11.80;;;9.15;;
20527;SDS011;23612;50.894;10.700;2023-06-26T03:01:10;10.98;;;8.57;;
20527;SDS011;23612;50.894;10.700;2023-06-26T03:03:36;15.13;;;7.72;;
20527;SDS011;23612;50.894;10.700;2023-06-26T03:06:05;10.90;;;7.43;;
20527;SDS011;23612;50.894;10.700;2023-06-26T03:08:31;9.15;;;8.25;;
20527;SDS011;23612;50.894;10.700;2023-06-26T03:10:57;14.82;;;8.68;;
20527;SDS011;23612;50.894;10.700;2023-06-26T03:13:22;12.85;;;7.75;;
20527;SDS011;23612;50.894;10.700;2023-06-26T03:15:48;9.85;;;8.18;;
20527;SDS011;23612;50.894;10.700;2023-06-26T03:18:13;12.43;;;8.80;;
20527;SDS011;23612;50.894;10.700;2023-06-26T03:20:39;11.85;;;7.88;;
20527;SDS011;23612;50.894;10.700;2023-06-26T03:23:04;11.35;;;8.48;;
20527;SDS011;23612;50.894;10.700;2023-06-26T03:25:30;13.50;;;8.90;;
20527;SDS011;23612;50.894;10.700;2023-06-26T03:27:55;14.73;;;9.38;;
20527;SDS011;23612;50.894;10.700;2023-06-26T03:30:21;12.27;;;8.80;;
20527;SDS011;23612;50.894;10.700;2023-06-26T03:32:46;9.40;;;8.20;;
20527;SDS011;23612;50.894;10.700;2023-06-26T03:35:12;10.98;;;8.68;;
20527;SDS011;23612;50.894;10.700;2023-06-26T03:37:37;14.20;;;8.90;;
20527;SDS011;23612;50.894;10.700;2023-06-26T03:40:03;9.30;;;8.00;;
20527;SDS011;23612;50.894;10.700;2023-06-26T03:42:29;13.93;;;8.70;;
20527;SDS011;23612;50.894;10.700;2023-06-26T03:44:55;10.95;;;8.02;;
20527;SDS011;23612;50.894;10.700;2023-06-26T03:47:20;11.90;;;8.20;;
20527;SDS011;23612;50.894;10.700;2023-06-26T03:49:46;11.48;;;7.70;;
20527;SDS011;23612;50.894;10.700;2023-06-26T03:52:11;12.88;;;8.48;;
20527;SDS011;23612;50.894;10.700;2023-06-26T03:54:37;11.35;;;7.75;;
20527;SDS011;23612;50.894;10.700;2023-06-26T03:57:02;10.40;;;8.00;;
20527;SDS011;23612;50.894;10.700;2023-06-26T03:59:28;13.38;;;7.88;;
20527;SDS011;23612;50.894;10.700;2023-06-26T04:01:53;12.23;;;8.00;;
20527;SDS011;23612;50.894;10.700;2023-06-26T04:04:19;12.48;;;8.32;;
20527;SDS011;23612;50.894;10.700;2023-06-26T04:06:44;15.85;;;8.63;;
20527;SDS011;23612;50.894;10.700;2023-06-26T04:09:10;11.90;;;7.70;;
20527;SDS011;23612;50.894;10.700;2023-06-26T04:11:35;12.27;;;7.97;;
20527;SDS011;23612;50.894;10.700;2023-06-26T04:14:01;11.57;;;8.00;;
20527;SDS011;23612;50.894;10.700;2023-06-26T04:16:28;15.38;;;7.93;;
20527;SDS011;23612;50.894;10.700;2023-06-26T04:18:54;11.85;;;8.27;;
20527;SDS011;23612;50.894;10.700;2023-06-26T04:21:21;13.18;;;7.75;;
20527;SDS011;23612;50.894;10.700;2023-06-26T04:23:49;18.70;;;11.13;;
20527;SDS011;23612;50.894;10.700;2023-06-26T04:26:15;14.32;;;8.23;;
20527;SDS011;23612;50.894;10.700;2023-06-26T04:28:40;10.93;;;7.88;;
20527;SDS011;23612;50.894;10.700;2023-06-26T04:31:07;16.17;;;9.25;;
20527;SDS011;23612;50.894;10.700;2023-06-26T04:33:33;14.32;;;7.97;;
20527;SDS011;23612;50.894;10.700;2023-06-26T04:36:01;12.55;;;8.48;;
20527;SDS011;23612;50.894;10.700;2023-06-26T04:38:28;14.23;;;8.48;;
20527;SDS011;23612;50.894;10.700;2023-06-26T04:40:54;10.98;;;8.10;;
20527;SDS011;23612;50.894;10.700;2023-06-26T04:43:19;13.65;;;8.85;;
20527;SDS011;23612;50.894;10.700;2023-06-26T04:45:45;18.83;;;8.70;;
20527;SDS011;23612;50.894;10.700;2023-06-26T04:48:10;22.52;;;8.90;;
20527;SDS011;23612;50.894;10.700;2023-06-26T04:50:36;14.38;;;8.82;;
20527;SDS011;23612;50.894;10.700;2023-06-26T04:53:01;18.75;;;8.48;;
20527;SDS011;23612;50.894;10.700;2023-06-26T04:55:27;13.07;;;7.97;;
20527;SDS011;23612;50.894;10.700;2023-06-26T04:57:53;16.55;;;8.70;;
20527;SDS011;23612;50.894;10.700;2023-06-26T05:00:19;15.57;;;8.13;;
20527;SDS011;23612;50.894;10.700;2023-06-26T05:02:44;14.10;;;9.80;;
20527;SDS011;23612;50.894;10.700;2023-06-26T05:05:10;12.63;;;7.68;;
20527;SDS011;23612;50.894;10.700;2023-06-26T05:07:36;7.72;;;6.85;;
20527;SDS011;23612;50.894;10.700;2023-06-26T05:10:02;8.43;;;6.95;;
20527;SDS011;23612;50.894;10.700;2023-06-26T05:12:28;12.48;;;7.38;;
20527;SDS011;23612;50.894;10.700;2023-06-26T05:14:53;10.20;;;7.10;;
20527;SDS011;23612;50.894;10.700;2023-06-26T05:17:19;8.55;;;6.72;;
20527;SDS011;23612;50.894;10.700;2023-06-26T05:19:44;10.27;;;8.02;;
20527;SDS011;23612;50.894;10.700;2023-06-26T05:22:10;8.15;;;7.22;;
20527;SDS011;23612;50.894;10.700;2023-06-26T05:24:37;7.63;;;6.03;;
20527;SDS011;23612;50.894;10.700;2023-06-26T05:27:04;10.65;;;6.10;;
20527;SDS011;23612;50.894;10.700;2023-06-26T05:29:30;10.07;;;6.43;;
20527;SDS011;23612;50.894;10.700;2023-06-26T05:31:57;6.85;;;6.20;;
20527;SDS011;23612;50.894;10.700;2023-06-26T05:34:23;9.60;;;6.75;;
20527;SDS011;23612;50.894;10.700;2023-06-26T05:36:52;6.68;;;5.97;;
20527;SDS011;23612;50.894;10.700;2023-06-26T05:39:22;6.72;;;6.07;;
20527;SDS011;23612;50.894;10.700;2023-06-26T05:41:48;6.53;;;5.93;;
20527;SDS011;23612;50.894;10.700;2023-06-26T05:44:14;6.68;;;5.97;;
20527;SDS011;23612;50.894;10.700;2023-06-26T05:46:39;8.95;;;6.07;;
20527;SDS011;23612;50.894;10.700;2023-06-26T05:49:05;8.35;;;5.97;;
20527;SDS011;23612;50.894;10.700;2023-06-26T05:51:30;7.10;;;5.93;;
20527;SDS011;23612;50.894;10.700;2023-06-26T05:53:56;6.68;;;5.88;;
20527;SDS011;23612;50.894;10.700;2023-06-26T05:56:22;7.38;;;5.63;;
20527;SDS011;23612;50.894;10.700;2023-06-26T05:58:47;6.07;;;5.47;;
20527;SDS011;23612;50.894;10.700;2023-06-26T06:01:13;13.65;;;6.85;;
20527;SDS011;23612;50.894;10.700;2023-06-26T06:03:39;10.00;;;6.30;;
20527;SDS011;23612;50.894;10.700;2023-06-26T06:06:05;6.85;;;5.70;;
20527;SDS011;23612;50.894;10.700;2023-06-26T06:08:30;7.70;;;6.25;;
20527;SDS011;23612;50.894;10.700;2023-06-26T06:10:56;6.93;;;5.10;;
20527;SDS011;23612;50.894;10.700;2023-06-26T06:13:22;7.53;;;5.30;;
20527;SDS011;23612;50.894;10.700;2023-06-26T06:15:47;8.75;;;5.65;;
20527;SDS011;23612;50.894;10.700;2023-06-26T06:18:13;7.13;;;4.93;;
20527;SDS011;23612;50.894;10.700;2023-06-26T06:20:38;14.30;;;5.30;;
20527;SDS011;23612;50.894;10.700;2023-06-26T06:23:04;17.50;;;5.65;;
20527;SDS011;23612;50.894;10.700;2023-06-26T06:25:29;6.43;;;4.60;;
20527;SDS011;23612;50.894;10.700;2023-06-26T06:27:54;9.00;;;4.63;;
20527;SDS011;23612;50.894;10.700;2023-06-26T06:30:20;6.28;;;4.90;;
20527;SDS011;23612;50.894;10.700;2023-06-26T06:32:46;6.80;;;4.85;;
20527;SDS011;23612;50.894;10.700;2023-06-26T06:35:15;7.03;;;4.95;;
20527;SDS011;23612;50.894;10.700;2023-06-26T06:37:42;4.95;;;4.45;;
20527;SDS011;23612;50.894;10.700;2023-06-26T06:40:08;7.72;;;4.80;;
20527;SDS011;23612;50.894;10.700;2023-06-26T06:42:35;4.63;;;4.30;;
20527;SDS011;23612;50.894;10.700;2023-06-26T06:45:04;4.90;;;4.40;;
20527;SDS011;23612;50.894;10.700;2023-06-26T06:47:31;5.10;;;4.68;;
20527;SDS011;23612;50.894;10.700;2023-06-26T06:49:57;6.38;;;4.20;;
20527;SDS011;23612;50.894;10.700;2023-06-26T06:52:22;4.60;;;4.20;;
20527;SDS011;23612;50.894;10.700;2023-06-26T06:54:51;4.85;;;4.40;;
20527;SDS011;23612;50.894;10.700;2023-06-26T06:57:18;9.85;;;4.70;;
20527;SDS011;23612;50.894;10.700;2023-06-26T06:59:45;4.85;;;4.38;;
20527;SDS011;23612;50.894;10.700;2023-06-26T07:02:12;5.35;;;4.85;;
20527;SDS011;23612;50.894;10.700;2023-06-26T07:04:38;6.03;;;4.10;;
20527;SDS011;23612;50.894;10.700;2023-06-26T07:07:03;6.00;;;4.90;;
20527;SDS011;23612;50.894;10.700;2023-06-26T07:09:29;5.53;;;4.68;;
20527;SDS011;23612;50.894;10.700;2023-06-26T07:11:54;4.38;;;3.97;;
20527;SDS011;23612;50.894;10.700;2023-06-26T07:14:20;5.47;;;4.43;;
20527;SDS011;23612;50.894;10.700;2023-06-26T07:16:45;4.95;;;4.55;;
20527;SDS011;23612;50.894;10.700;2023-06-26T07:19:11;4.68;;;4.38;;
20527;SDS011;23612;50.894;10.700;2023-06-26T07:21:36;4.85;;;4.45;;
20527;SDS011;23612;50.894;10.700;2023-06-26T07:24:02;5.40;;;4.47;;
20527;SDS011;23612;50.894;10.700;2023-06-26T07:26:27;5.10;;;4.57;;
20527;SDS011;23612;50.894;10.700;2023-06-26T07:28:53;6.45;;;4.35;;
20527;SDS011;23612;50.894;10.700;2023-06-26T07:31:21;4.38;;;4.07;;
20527;SDS011;23612;50.894;10.700;2023-06-26T07:33:47;7.75;;;4.30;;
20527;SDS011;23612;50.894;10.700;2023-06-26T07:36:12;4.85;;;4.15;;
20527;SDS011;23612;50.894;10.700;2023-06-26T07:38:38;4.50;;;4.20;;
20527;SDS011;23612;50.894;10.700;2023-06-26T07:41:03;4.93;;;4.43;;
20527;SDS011;23612;50.894;10.700;2023-06-26T07:43:29;4.32;;;4.03;;
20527;SDS011;23612;50.894;10.700;2023-06-26T07:45:54;6.18;;;4.15;;
20527;SDS011;23612;50.894;10.700;2023-06-26T07:48:23;4.57;;;4.18;;
20527;SDS011;23612;50.894;10.700;2023-06-26T07:50:49;4.28;;;3.97;;
20527;SDS011;23612;50.894;10.700;2023-06-26T07:53:14;7.72;;;4.38;;
20527;SDS011;23612;50.894;10.700;2023-06-26T07:55:40;4.82;;;4.43;;
20527;SDS011;23612;50.894;10.700;2023-06-26T07:58:05;5.43;;;4.90;;
20527;SDS011;23612;50.894;10.700;2023-06-26T08:00:31;6.30;;;4.93;;
20527;SDS011;23612;50.894;10.700;2023-06-26T08:02:57;4.50;;;4.18;;
20527;SDS011;23612;50.894;10.700;2023-06-26T08:05:22;5.57;;;4.65;;
20527;SDS011;23612;50.894;10.700;2023-06-26T08:07:48;7.15;;;4.80;;
20527;SDS011;23612;50.894;10.700;2023-06-26T08:10:13;6.45;;;5.05;;
20527;SDS011;23612;50.894;10.700;2023-06-26T08:12:39;5.22;;;4.70;;
20527;SDS011;23612;50.894;10.700;2023-06-26T08:15:07;5.22;;;4.82;;
20527;SDS011;23612;50.894;10.700;2023-06-26T08:17:34;4.90;;;4.50;;
20527;SDS011;23612;50.894;10.700;2023-06-26T08:20:00;5.70;;;5.10;;
20527;SDS011;23612;50.894;10.700;2023-06-26T08:22:26;8.20;;;4.65;;
20527;SDS011;23612;50.894;10.700;2023-06-26T08:24:52;5.72;;;5.18;;
20527;SDS011;23612;50.894;10.700;2023-06-26T08:27:17;6.45;;;4.95;;
20527;SDS011;23612;50.894;10.700;2023-06-26T08:29:42;5.47;;;5.07;;
20527;SDS011;23612;50.894;10.700;2023-06-26T08:32:08;4.78;;;4.38;;
20527;SDS011;23612;50.894;10.700;2023-06-26T08:34:33;6.25;;;4.80;;
20527;SDS011;23612;50.894;10.700;2023-06-26T08:36:59;6.63;;;5.03;;
20527;SDS011;23612;50.894;10.700;2023-06-26T08:39:24;10.75;;;5.28;;
20527;SDS011;23612;50.894;10.700;2023-06-26T08:41:50;5.90;;;5.28;;
20527;SDS011;23612;50.894;10.700;2023-06-26T08:44:16;5.88;;;4.65;;
20527;SDS011;23612;50.894;10.700;2023-06-26T08:46:41;6.45;;;5.10;;
20527;SDS011;23612;50.894;10.700;2023-06-26T08:49:11;6.05;;;4.65;;
20527;SDS011;23612;50.894;10.700;2023-06-26T08:51:59;5.55;;;4.57;;
20527;SDS011;23612;50.894;10.700;2023-06-26T08:54:32;5.35;;;4.90;;
20527;SDS011;23612;50.894;10.700;2023-06-26T08:57:01;5.22;;;4.78;;
20527;SDS011;23612;50.894;10.700;2023-06-26T08:59:27;6.20;;;5.03;;
20527;SDS011;23612;50.894;10.700;2023-06-26T09:01:53;5.97;;;4.70;;
20527;SDS011;23612;50.894;10.700;2023-06-26T09:04:19;5.32;;;4.82;;
20527;SDS011;23612;50.894;10.700;2023-06-26T09:06:44;5.00;;;4.60;;
20527;SDS011;23612;50.894;10.700;2023-06-26T09:09:10;6.00;;;4.97;;
20527;SDS011;23612;50.894;10.700;2023-06-26T09:11:35;5.47;;;4.82;;
20527;SDS011;23612;50.894;10.700;2023-06-26T09:14:01;8.23;;;5.20;;
20527;SDS011;23612;50.894;10.700;2023-06-26T09:16:29;9.50;;;5.07;;
20527;SDS011;23612;50.894;10.700;2023-06-26T09:18:55;6.75;;;5.13;;
20527;SDS011;23612;50.894;10.700;2023-06-26T09:21:21;5.22;;;4.72;;
20527;SDS011;23612;50.894;10.700;2023-06-26T09:23:47;5.95;;;5.20;;
20527;SDS011;23612;50.894;10.700;2023-06-26T09:26:14;6.35;;;4.78;;
20527;SDS011;23612;50.894;10.700;2023-06-26T09:28:41;4.93;;;4.63;;
20527;SDS011;23612;50.894;10.700;2023-06-26T09:31:07;5.50;;;5.10;;
20527;SDS011;23612;50.894;10.700;2023-06-26T09:33:35;9.80;;;5.30;;
20527;SDS011;23612;50.894;10.700;2023-06-26T09:36:06;5.40;;;4.82;;
20527;SDS011;23612;50.894;10.700;2023-06-26T09:38:33;9.30;;;7.45;;
20527;SDS011;23612;50.894;10.700;2023-06-26T09:40:59;5.10;;;4.60;;
20527;SDS011;23612;50.894;10.700;2023-06-26T09:43:25;5.68;;;5.22;;
20527;SDS011;23612;50.894;10.700;2023-06-26T09:45:51;5.13;;;4.72;;
20527;SDS011;23612;50.894;10.700;2023-06-26T09:48:16;5.82;;;4.97;;
20527;SDS011;23612;50.894;10.700;2023-06-26T09:50:42;5.75;;;4.85;;
20527;SDS011;23612;50.894;10.700;2023-06-26T09:53:08;5.80;;;4.93;;
20527;SDS011;23612;50.894;10.700;2023-06-26T09:55:35;5.85;;;4.72;;
20527;SDS011;23612;50.894;10.700;2023-06-26T09:58:04;5.15;;;4.75;;
20527;SDS011;23612;50.894;10.700;2023-06-26T10:00:30;9.27;;;5.32;;
20527;SDS011;23612;50.894;10.700;2023-06-26T10:02:56;10.40;;;5.05;;
20527;SDS011;23612;50.894;10.700;2023-06-26T10:05:22;6.28;;;5.78;;
20527;SDS011;23612;50.894;10.700;2023-06-26T10:07:48;5.97;;;5.38;;
20527;SDS011;23612;50.894;10.700;2023-06-26T10:10:14;5.53;;;5.13;;
20527;SDS011;23612;50.894;10.700;2023-06-26T10:12:43;5.75;;;5.25;;
20527;SDS011;23612;50.894;10.700;2023-06-26T10:15:13;5.75;;;5.25;;
20527;SDS011;23612;50.894;10.700;2023-06-26T10:17:42;6.68;;;5.00;;
20527;SDS011;23612;50.894;10.700;2023-06-26T10:20:08;5.72;;;5.18;;
20527;SDS011;23612;50.894;10.700;2023-06-26T10:22:39;5.45;;;5.05;;
20527;SDS011;23612;50.894;10.700;2023-06-26T10:25:09;5.40;;;4.93;;
20527;SDS011;23612;50.894;10.700;2023-06-26T10:27:40;6.07;;;5.40;;
20527;SDS011;23612;50.894;10.700;2023-06-26T10:30:11;5.72;;;5.10;;
20527;SDS011;23612;50.894;10.700;2023-06-26T10:32:41;5.35;;;4.85;;
20527;SDS011;23612;50.894;10.700;2023-06-26T10:35:07;5.20;;;4.80;;
20527;SDS011;23612;50.894;10.700;2023-06-26T10:37:48;5.07;;;4.68;;
20527;SDS011;23612;50.894;10.700;2023-06-26T10:40:20;5.90;;;5.45;;
20527;SDS011;23612;50.894;10.700;2023-06-26T10:43:05;9.40;;;5.45;;
20527;SDS011;23612;50.894;10.700;2023-06-26T10:45:34;6.75;;;5.18;;
20527;SDS011;23612;50.894;10.700;2023-06-26T10:48:01;6.18;;;5.28;;
20527;SDS011;23612;50.894;10.700;2023-06-26T10:50:28;5.78;;;5.20;;
20527;SDS011;23612;50.894;10.700;2023-06-26T10:53:15;8.40;;;5.32;;
20527;SDS011;23612;50.894;10.700;2023-06-26T10:55:56;5.40;;;4.90;;
20527;SDS011;23612;50.894;10.700;2023-06-26T11:06:24;5.28;;;4.88;;
20527;SDS011;23612;50.894;10.700;2023-06-26T11:14:18;6.65;;;6.03;;
20527;SDS011;23612;50.894;10.700;2023-06-26T11:16:44;5.78;;;5.32;;
20527;SDS011;23612;50.894;10.700;2023-06-26T11:19:10;5.22;;;4.82;;
20527;SDS011;23612;50.894;10.700;2023-06-26T11:21:39;5.30;;;4.80;;
20527;SDS011;23612;50.894;10.700;2023-06-26T11:24:08;5.30;;;4.80;;
20527;SDS011;23612;50.894;10.700;2023-06-26T11:26:38;5.70;;;4.55;;
20527;SDS011;23612;50.894;10.700;2023-06-26T11:29:07;5.97;;;5.32;;
20527;SDS011;23612;50.894;10.700;2023-06-26T11:31:39;6.03;;;5.53;;
20527;SDS011;23612;50.894;10.700;2023-06-26T11:34:07;6.68;;;4.90;;
20527;SDS011;23612;50.894;10.700;2023-06-26T11:36:35;10.55;;;5.63;;
20527;SDS011;23612;50.894;10.700;2023-06-26T11:39:02;5.63;;;5.15;;
20527;SDS011;23612;50.894;10.700;2023-06-26T11:41:32;10.32;;;5.88;;
20527;SDS011;23612;50.894;10.700;2023-06-26T11:44:03;5.80;;;5.30;;
20527;SDS011;23612;50.894;10.700;2023-06-26T11:46:34;5.80;;;5.05;;
20527;SDS011;23612;50.894;10.700;2023-06-26T11:49:00;5.55;;;5.03;;
20527;SDS011;23612;50.894;10.700;2023-06-26T11:51:31;10.25;;;5.25;;
20527;SDS011;23612;50.894;10.700;2023-06-26T11:53:56;6.78;;;5.30;;
20527;SDS011;23612;50.894;10.700;2023-06-26T11:56:22;5.43;;;4.93;;
20527;SDS011;23612;50.894;10.700;2023-06-26T12:01:34;5.70;;;5.20;;
20527;SDS011;23612;50.894;10.700;2023-06-26T12:04:02;6.80;;;5.05;;
20527;SDS011;23612;50.894;10.700;2023-06-26T12:06:29;8.95;;;5.38;;
20527;SDS011;23612;50.894;10.700;2023-06-26T12:08:56;5.97;;;5.47;;
20527;SDS011;23612;50.894;10.700;2023-06-26T12:11:24;7.93;;;5.43;;
20527;SDS011;23612;50.894;10.700;2023-06-26T12:13:51;7.85;;;5.72;;
20527;SDS011;23612;50.894;10.700;2023-06-26T12:16:17;5.60;;;5.10;;
20527;SDS011;23612;50.894;10.700;2023-06-26T12:18:43;7.20;;;5.53;;
20527;SDS011;23612;50.894;10.700;2023-06-26T12:21:24;6.55;;;5.95;;
20527;SDS011;23612;50.894;10.700;2023-06-26T12:23:58;6.95;;;5.78;;
20527;SDS011;23612;50.894;10.700;2023-06-26T12:26:25;10.15;;;6.47;;
20527;SDS011;23612;50.894;10.700;2023-06-26T12:28:51;12.95;;;6.15;;
20527;SDS011;23612;50.894;10.700;2023-06-26T12:31:17;9.38;;;6.20;;
20527;SDS011;23612;50.894;10.700;2023-06-26T12:33:46;15.48;;;6.68;;
20527;SDS011;23612;50.894;10.700;2023-06-26T12:36:12;20.45;;;7.13;;
20527;SDS011;23612;50.894;10.700;2023-06-26T12:38:38;7.53;;;5.57;;
20527;SDS011;23612;50.894;10.700;2023-06-26T12:41:04;8.88;;;6.40;;
20527;SDS011;23612;50.894;10.700;2023-06-26T12:43:29;16.25;;;6.10;;
20527;SDS011;23612;50.894;10.700;2023-06-26T12:45:55;8.20;;;6.05;;
20527;SDS011;23612;50.894;10.700;2023-06-26T12:48:21;7.47;;;5.93;;
20527;SDS011;23612;50.894;10.700;2023-06-26T12:51:07;13.65;;;6.47;;
20527;SDS011;23612;50.894;10.700;2023-06-26T12:53:35;13.15;;;6.97;;
20527;SDS011;23612;50.894;10.700;2023-06-26T12:56:01;9.30;;;5.78;;
20527;SDS011;23612;50.894;10.700;2023-06-26T12:58:27;7.93;;;6.05;;
20527;SDS011;23612;50.894;10.700;2023-06-26T13:00:52;9.88;;;6.30;;
20527;SDS011;23612;50.894;10.700;2023-06-26T13:03:18;7.55;;;5.82;;
20527;SDS011;23612;50.894;10.700;2023-06-26T13:05:45;10.40;;;6.00;;
20527;SDS011;23612;50.894;10.700;2023-06-26T13:08:11;10.00;;;6.43;;
20527;SDS011;23612;50.894;10.700;2023-06-26T13:10:37;8.02;;;6.53;;
20527;SDS011;23612;50.894;10.700;2023-06-26T13:13:02;39.83;;;8.13;;
20527;SDS011;23612;50.894;10.700;2023-06-26T13:15:28;11.57;;;7.20;;
20527;SDS011;23612;50.894;10.700;2023-06-26T13:17:53;7.90;;;6.82;;
20527;SDS011;23612;50.894;10.700;2023-06-26T13:20:18;10.77;;;7.63;;
20527;SDS011;23612;50.894;10.700;2023-06-26T13:22:44;11.10;;;7.55;;
20527;SDS011;23612;50.894;10.700;2023-06-26T13:25:11;11.40;;;7.47;;
20527;SDS011;23612;50.894;10.700;2023-06-26T13:27:36;12.30;;;7.57;;
20527;SDS011;23612;50.894;10.700;2023-06-26T13:30:02;10.00;;;7.70;;
20527;SDS011;23612;50.894;10.700;2023-06-26T13:32:28;18.98;;;7.90;;
20527;SDS011;23612;50.894;10.700;2023-06-26T13:34:53;13.50;;;7.75;;
20527;SDS011;23612;50.894;10.700;2023-06-26T13:37:19;8.65;;;7.70;;
20527;SDS011;23612;50.894;10.700;2023-06-26T13:39:44;10.38;;;7.50;;
20527;SDS011;23612;50.894;10.700;2023-06-26T13:42:14;8.63;;;7.82;;
20527;SDS011;23612;50.894;10.700;2023-06-26T13:44:40;11.27;;;7.75;;
20527;SDS011;23612;50.894;10.700;2023-06-26T13:47:06;13.77;;;8.00;;
20527;SDS011;23612;50.894;10.700;2023-06-26T13:49:31;19.83;;;7.72;;
20527;SDS011;23612;50.894;10.700;2023-06-26T13:51:57;11.80;;;7.80;;
20527;SDS011;23612;50.894;10.700;2023-06-26T13:54:22;16.33;;;8.05;;
20527;SDS011;23612;50.894;10.700;2023-06-26T13:56:48;11.85;;;7.68;;
20527;SDS011;23612;50.894;10.700;2023-06-26T13:59:13;9.02;;;8.15;;
20527;SDS011;23612;50.894;10.700;2023-06-26T14:01:39;10.27;;;8.38;;
20527;SDS011;23612;50.894;10.700;2023-06-26T14:04:07;13.43;;;8.77;;
20527;SDS011;23612;50.894;10.700;2023-06-26T14:06:33;10.20;;;7.80;;
20527;SDS011;23612;50.894;10.700;2023-06-26T14:08:59;10.60;;;8.07;;
20527;SDS011;23612;50.894;10.700;2023-06-26T14:11:25;11.13;;;8.05;;
20527;SDS011;23612;50.894;10.700;2023-06-26T14:13:50;12.63;;;8.63;;
20527;SDS011;23612;50.894;10.700;2023-06-26T14:16:16;22.67;;;9.90;;
20527;SDS011;23612;50.894;10.700;2023-06-26T14:18:43;12.10;;;9.82;;
20527;SDS011;23612;50.894;10.700;2023-06-26T14:21:09;22.67;;;9.43;;
20527;SDS011;23612;50.894;10.700;2023-06-26T14:23:34;14.05;;;8.98;;
20527;SDS011;23612;50.894;10.700;2023-06-26T14:26:00;13.23;;;10.20;;
20527;SDS011;23612;50.894;10.700;2023-06-26T14:28:25;10.13;;;8.95;;
20527;SDS011;23612;50.894;10.700;2023-06-26T14:30:51;13.48;;;8.70;;
20527;SDS011;23612;50.894;10.700;2023-06-26T14:33:16;12.77;;;8.70;;
20527;SDS011;23612;50.894;10.700;2023-06-26T14:35:42;12.05;;;8.45;;
20527;SDS011;23612;50.894;10.700;2023-06-26T14:38:07;9.32;;;8.40;;
20527;SDS011;23612;50.894;10.700;2023-06-26T14:40:33;10.63;;;8.88;;
20527;SDS011;23612;50.894;10.700;2023-06-26T14:42:58;13.93;;;9.20;;